Time;durP1;ratioP1;P1;durP2;ratioP2;P2;SDS_P1;SDS_P2;PMS_P1;PMS_P2;Temp;Humidity;BMP_temperature;BMP_pressure;BME280_temperature;BME280_humidity;BME280_pressure;Samples;Min_cycle;Max_cycle;Signal;HPM_P1;HPM_P2
2022/03/13 00:02:53;;;;;;;4.40;2.85;;;17.00;59.00;;;;;;10381736;28;20422;-60
2022/03/13 00:07:56;;;;;;;4.20;2.35;;;17.00;59.00;;;;;;10372110;28;20068;-61
2022/03/13 00:12:57;;;;;;;4.38;2.72;;;17.10;59.00;;;;;;10372164;28;20503;-60
2022/03/13 00:17:59;;;;;;;4.18;2.83;;;17.10;58.90;;;;;;10381106;28;20025;-61
2022/03/13 00:23:00;;;;;;;3.60;2.53;;;17.10;58.90;;;;;;10380055;28;20513;-61
2022/03/13 00:28:00;;;;;;;3.65;2.30;;;17.10;58.90;;;;;;10373290;28;20085;-61
2022/03/13 00:33:02;;;;;;;5.53;3.10;;;17.00;58.90;;;;;;10374052;28;20133;-60
2022/03/13 00:38:03;;;;;;;4.97;3.03;;;17.00;58.90;;;;;;10369301;28;20038;-61
2022/03/13 00:43:04;;;;;;;4.72;2.83;;;17.00;58.80;;;;;;10373559;28;20482;-61
2022/03/13 00:48:05;;;;;;;3.78;2.63;;;17.10;58.80;;;;;;10382530;28;20064;-61
2022/03/13 00:53:06;;;;;;;4.15;2.42;;;17.00;58.70;;;;;;10401401;28;20497;-61
2022/03/13 00:58:06;;;;;;;4.43;2.53;;;17.10;58.60;;;;;;10372914;28;20516;-61
2022/03/13 01:03:30;;;;;;;4.60;2.15;;;17.10;58.30;;;;;;10380724;28;20112;-61
2022/03/13 01:08:31;;;;;;;3.53;2.20;;;17.20;58.20;;;;;;10402091;28;20033;-60
2022/03/13 01:13:32;;;;;;;3.58;2.38;;;17.20;58.10;;;;;;10376342;28;20030;-60
2022/03/13 01:18:33;;;;;;;3.58;2.45;;;17.20;58.20;;;;;;10368181;28;20030;-60
2022/03/13 01:23:33;;;;;;;3.75;2.45;;;17.10;58.20;;;;;;10377881;28;20057;-61
2022/03/13 01:28:34;;;;;;;3.53;2.25;;;17.20;58.20;;;;;;10413210;28;20433;-60
2022/03/13 01:33:35;;;;;;;3.45;2.38;;;17.20;58.20;;;;;;10356444;28;20108;-61
2022/03/13 01:38:36;;;;;;;3.40;2.20;;;17.20;58.20;;;;;;10367601;28;20049;-61
2022/03/13 01:43:37;;;;;;;3.17;2.42;;;17.20;58.30;;;;;;10372376;28;20116;-61
2022/03/13 01:48:59;;;;;;;3.83;2.78;;;17.10;58.30;;;;;;10381097;28;20029;-60
2022/03/13 01:54:08;;;;;;;2.90;2.08;;;17.10;58.40;;;;;;10392166;28;20032;-61
2022/03/13 01:59:11;;;;;;;3.40;2.15;;;17.00;58.40;;;;;;10381529;28;20164;-61
2022/03/13 02:04:12;;;;;;;3.35;2.38;;;17.00;58.40;;;;;;10367280;28;20037;-61
2022/03/13 02:09:13;;;;;;;3.45;2.50;;;17.00;58.50;;;;;;10367488;28;20033;-62
2022/03/13 02:14:17;;;;;;;4.75;2.97;;;17.00;58.50;;;;;;10367231;28;20054;-61
2022/03/13 02:19:18;;;;;;;3.83;2.17;;;17.00;58.50;;;;;;10380526;28;20030;-60
2022/03/13 02:24:26;;;;;;;4.78;2.70;;;17.00;58.50;;;;;;10377998;28;20034;-60
2022/03/13 02:29:29;;;;;;;3.00;2.17;;;17.00;58.40;;;;;;10368283;28;20037;-61
2022/03/13 02:34:29;;;;;;;3.60;2.10;;;17.00;58.30;;;;;;10380379;28;20417;-61
2022/03/13 02:39:36;;;;;;;3.42;2.50;;;17.00;58.20;;;;;;10380428;28;20052;-60
2022/03/13 02:44:37;;;;;;;3.60;2.58;;;17.10;58.20;;;;;;10357570;28;20041;-60
2022/03/13 02:49:38;;;;;;;2.83;2.05;;;17.10;58.00;;;;;;10369492;28;20122;-62
2022/03/13 02:54:38;;;;;;;4.03;2.45;;;17.20;57.80;;;;;;10373523;28;20026;-60
2022/03/13 02:59:39;;;;;;;3.38;2.30;;;17.20;57.60;;;;;;10378092;28;20041;-60
2022/03/13 03:04:43;;;;;;;3.50;2.33;;;17.20;57.60;;;;;;10377643;28;20521;-61
2022/03/13 03:09:44;;;;;;;3.20;2.30;;;17.20;57.70;;;;;;10382287;28;20025;-61
2022/03/13 03:14:45;;;;;;;2.80;2.05;;;17.20;57.80;;;;;;10386887;28;20033;-61
2022/03/13 03:19:45;;;;;;;3.72;2.13;;;17.10;57.80;;;;;;10385748;28;20083;-60
2022/03/13 03:24:48;;;;;;;2.45;2.00;;;17.10;57.80;;;;;;10386390;28;20103;-61
2022/03/13 03:29:49;;;;;;;2.78;1.90;;;17.10;57.80;;;;;;10385841;28;20408;-60
2022/03/13 03:34:50;;;;;;;4.03;2.50;;;17.10;57.80;;;;;;10416201;28;20072;-61
2022/03/13 03:39:50;;;;;;;3.00;2.00;;;17.10;57.80;;;;;;10384062;28;20053;-60
2022/03/13 03:44:51;;;;;;;3.85;2.13;;;17.00;57.80;;;;;;10385708;28;20469;-61
2022/03/13 03:49:52;;;;;;;3.13;2.40;;;17.10;58.00;;;;;;10384722;28;20041;-61
2022/03/13 03:54:52;;;;;;;4.47;2.40;;;17.00;58.00;;;;;;10373994;28;20112;-61
2022/03/13 03:59:53;;;;;;;3.58;2.25;;;17.00;58.10;;;;;;10415974;28;20396;-61
2022/03/13 04:04:54;;;;;;;3.22;2.13;;;17.00;57.90;;;;;;10371725;28;20040;-61
2022/03/13 04:09:55;;;;;;;4.10;2.30;;;17.10;57.50;;;;;;10389886;28;20037;-61
2022/03/13 04:14:56;;;;;;;3.53;2.67;;;17.10;57.40;;;;;;10381570;28;20061;-62
2022/03/13 04:19:58;;;;;;;3.35;2.53;;;17.10;57.50;;;;;;10389593;28;20051;-60
2022/03/13 04:24:58;;;;;;;3.05;2.47;;;17.20;57.60;;;;;;10414841;28;20124;-61
2022/03/13 04:29:59;;;;;;;2.47;2.05;;;17.10;57.50;;;;;;10414900;28;20177;-62
2022/03/13 04:35:00;;;;;;;2.72;2.15;;;17.10;57.60;;;;;;10384273;28;20509;-61
2022/03/13 04:40:00;;;;;;;2.80;2.08;;;17.10;57.60;;;;;;10361771;28;20113;-61
2022/03/13 04:45:02;;;;;;;3.53;2.47;;;17.00;57.60;;;;;;10379487;28;20109;-61
2022/03/13 04:50:03;;;;;;;3.55;2.28;;;17.10;57.70;;;;;;10375924;28;20030;-61
2022/03/13 04:55:05;;;;;;;5.25;2.95;;;17.10;57.70;;;;;;10374563;28;20040;-60
2022/03/13 05:00:06;;;;;;;4.05;2.25;;;17.10;57.40;;;;;;10382260;28;20034;-61
2022/03/13 05:05:08;;;;;;;3.42;2.40;;;17.10;57.30;;;;;;10383105;28;20048;-61
2022/03/13 05:10:11;;;;;;;4.18;2.55;;;17.10;57.30;;;;;;10383034;28;20030;-61
2022/03/13 05:15:11;;;;;;;2.55;1.83;;;17.10;57.20;;;;;;10372452;28;20025;-61
2022/03/13 05:20:13;;;;;;;3.30;1.95;;;17.10;57.20;;;;;;10393982;28;20037;-60
2022/03/13 05:25:14;;;;;;;3.33;2.30;;;17.10;57.30;;;;;;10405879;28;20041;-61
2022/03/13 05:30:15;;;;;;;3.42;2.58;;;17.10;57.40;;;;;;10382748;28;20647;-61
2022/03/13 05:35:17;;;;;;;3.30;2.17;;;17.00;57.50;;;;;;10376196;28;20057;-61
2022/03/13 05:40:19;;;;;;;2.58;1.92;;;17.10;57.40;;;;;;10368151;28;20486;-60
2022/03/13 05:45:20;;;;;;;3.97;2.22;;;17.10;57.20;;;;;;10372928;28;20049;-61
2022/03/13 05:50:23;;;;;;;3.25;2.38;;;17.20;57.60;;;;;;10394688;28;20116;-61
2022/03/13 05:55:28;;;;;;;3.85;2.63;;;17.20;57.00;;;;;;10381904;28;20359;-60
2022/03/13 06:00:33;;;;;;;4.03;2.28;;;17.20;57.10;;;;;;10381504;28;20444;-61
2022/03/13 06:05:35;;;;;;;3.03;2.10;;;17.10;57.30;;;;;;10408870;28;20370;-61
2022/03/13 06:10:36;;;;;;;3.80;2.55;;;17.10;57.40;;;;;;10379747;28;20032;-61
2022/03/13 06:15:37;;;;;;;3.85;2.83;;;17.10;57.50;;;;;;10369463;28;20045;-61
2022/03/13 06:20:38;;;;;;;8.82;3.08;;;17.20;57.40;;;;;;10371448;28;20456;-58
2022/03/13 06:25:40;;;;;;;8.23;3.08;;;17.20;58.70;;;;;;10376935;28;20053;-58
2022/03/13 06:30:41;;;;;;;6.32;2.90;;;17.30;58.40;;;;;;10379562;28;20034;-59
2022/03/13 06:35:41;;;;;;;7.30;2.95;;;17.30;58.90;;;;;;10377182;28;20398;-60
2022/03/13 06:40:42;;;;;;;8.48;3.28;;;17.40;60.40;;;;;;10385229;28;20069;-62
2022/03/13 06:45:43;;;;;;;9.45;2.65;;;17.40;60.80;;;;;;10378363;28;20398;-59
2022/03/13 06:50:43;;;;;;;9.20;2.90;;;17.40;60.50;;;;;;10408918;28;20051;-59
2022/03/13 06:55:44;;;;;;;6.40;3.40;;;17.30;61.10;;;;;;10388177;28;20449;-59
2022/03/13 07:00:45;;;;;;;9.68;3.20;;;17.30;60.80;;;;;;10380697;28;20040;-57
2022/03/13 07:05:46;;;;;;;7.47;2.85;;;17.20;61.40;;;;;;10377761;28;20449;-59
2022/03/13 07:10:47;;;;;;;8.10;3.38;;;17.20;60.80;;;;;;10379041;28;20037;-60
2022/03/13 07:15:48;;;;;;;5.68;3.20;;;17.10;61.30;;;;;;10387904;28;20067;-60
2022/03/13 07:20:49;;;;;;;25.38;4.70;;;17.20;61.30;;;;;;10386995;28;20057;-60
2022/03/13 07:25:51;;;;;;;7.22;3.17;;;17.20;61.50;;;;;;10365291;28;20042;-62
2022/03/13 07:30:51;;;;;;;8.73;3.25;;;17.10;61.50;;;;;;10388424;28;20037;-60
2022/03/13 07:35:55;;;;;;;7.78;3.95;;;17.00;61.50;;;;;;10374923;28;20051;-59
2022/03/13 07:40:56;;;;;;;7.40;3.90;;;17.00;61.00;;;;;;10393143;28;20575;-60
2022/03/13 07:45:56;;;;;;;7.05;3.67;;;17.00;61.00;;;;;;10379108;28;20032;-60
2022/03/13 07:50:58;;;;;;;6.78;3.58;;;16.90;60.80;;;;;;10370930;28;20454;-60
2022/03/13 07:55:58;;;;;;;11.50;4.22;;;16.90;60.80;;;;;;10385889;28;20482;-60
2022/03/13 08:00:59;;;;;;;6.25;2.78;;;16.90;60.90;;;;;;10371274;28;20026;-60
2022/03/13 08:06:00;;;;;;;12.98;3.42;;;16.90;61.00;;;;;;10371497;28;20040;-62
2022/03/13 08:11:01;;;;;;;5.95;3.28;;;16.90;61.20;;;;;;10375260;28;20057;-58
2022/03/13 08:16:01;;;;;;;11.80;3.58;;;17.00;60.90;;;;;;10384105;28;20034;-61
2022/03/13 08:21:02;;;;;;;19.73;4.20;;;17.00;61.20;;;;;;10383882;28;20167;-63
2022/03/13 08:26:03;;;;;;;19.70;5.10;;;17.00;61.10;;;;;;10375587;28;20124;-61
2022/03/13 08:31:04;;;;;;;13.15;3.83;;;17.10;61.20;;;;;;10376535;28;20061;-61
2022/03/13 08:36:05;;;;;;;11.05;4.28;;;17.00;61.30;;;;;;10372964;28;20605;-62
2022/03/13 08:41:06;;;;;;;14.60;4.50;;;17.00;61.20;;;;;;10396967;28;20044;-61
2022/03/13 08:46:08;;;;;;;25.65;5.07;;;17.00;61.20;;;;;;10359454;28;20446;-58
2022/03/13 08:51:12;;;;;;;21.08;5.70;;;17.10;61.20;;;;;;10398270;28;20083;-61
2022/03/13 08:56:13;;;;;;;18.10;5.30;;;17.10;61.10;;;;;;10364940;28;20811;-58
2022/03/13 09:01:14;;;;;;;41.40;6.93;;;17.10;61.90;;;;;;10373376;28;20091;-60
2022/03/13 09:06:15;;;;;;;40.60;8.88;;;17.10;62.50;;;;;;10372509;28;20394;-59
2022/03/13 09:11:17;;;;;;;43.17;6.82;;;17.10;62.50;;;;;;10386270;28;20046;-62
2022/03/13 09:16:19;;;;;;;36.05;7.20;;;17.30;63.30;;;;;;10359643;28;20083;-61
2022/03/13 09:21:20;;;;;;;35.38;7.88;;;17.30;62.60;;;;;;10374388;28;20064;-59
2022/03/13 09:26:20;;;;;;;25.63;6.25;;;17.20;62.50;;;;;;10377195;28;20121;-60
2022/03/13 09:31:21;;;;;;;21.83;6.38;;;17.10;62.20;;;;;;10352163;28;20065;-59
2022/03/13 09:36:22;;;;;;;22.52;6.57;;;17.00;61.80;;;;;;10364849;28;20543;-60
2022/03/13 09:41:23;;;;;;;17.08;6.22;;;16.90;61.90;;;;;;10364369;28;20053;-60
2022/03/13 09:46:23;;;;;;;18.00;6.05;;;16.90;61.80;;;;;;10364641;28;20050;-60
2022/03/13 09:51:24;;;;;;;17.77;5.43;;;16.90;61.80;;;;;;10365017;28;20054;-59
2022/03/13 09:56:25;;;;;;;19.73;5.43;;;16.90;61.90;;;;;;10378889;28;20397;-59
2022/03/13 10:01:26;;;;;;;14.75;4.20;;;16.90;61.50;;;;;;10376670;28;20132;-60
2022/03/13 10:06:28;;;;;;;20.23;5.63;;;16.90;61.40;;;;;;10386465;28;20573;-59
2022/03/13 10:11:34;;;;;;;18.50;5.65;;;16.90;61.20;;;;;;10388088;28;20081;-59
2022/03/13 10:16:38;;;;;;;16.17;5.45;;;17.00;61.30;;;;;;10375435;28;20033;-60
2022/03/13 10:21:38;;;;;;;11.35;4.43;;;17.00;61.10;;;;;;10375285;28;20113;-60
2022/03/13 10:26:39;;;;;;;15.95;5.25;;;17.10;60.90;;;;;;10346743;28;20056;-59
2022/03/13 10:31:56;;;;;;;14.80;5.35;;;17.00;60.90;;;;;;10378912;28;20029;-59
2022/03/13 10:36:57;;;;;;;13.65;4.93;;;17.00;60.90;;;;;;10363917;28;20026;-59
2022/03/13 10:42:04;;;;;;;12.02;4.95;;;17.10;60.70;;;;;;10351003;28;20018;-59
2022/03/13 10:47:09;;;;;;;8.70;4.03;;;17.10;60.70;;;;;;10340701;28;20089;-60
2022/03/13 10:52:33;;;;;;;10.07;4.95;;;17.10;60.70;;;;;;10338597;28;20026;-59
2022/03/13 10:57:46;;;;;;;10.60;4.57;;;17.10;60.60;;;;;;10349647;28;20046;-60
2022/03/13 11:02:48;;;;;;;8.68;4.32;;;17.20;60.40;;;;;;10334765;28;20034;-59
2022/03/13 11:07:49;;;;;;;10.20;3.97;;;17.20;60.40;;;;;;10371603;28;20049;-60
2022/03/13 11:12:52;;;;;;;10.38;4.32;;;17.20;60.40;;;;;;10346590;28;20040;-59
2022/03/13 11:17:55;;;;;;;13.38;5.28;;;17.30;60.40;;;;;;10355827;28;20034;-58
2022/03/13 11:22:56;;;;;;;12.63;5.15;;;17.30;59.90;;;;;;10344675;28;20038;-58
2022/03/13 11:27:57;;;;;;;15.25;5.78;;;17.30;59.80;;;;;;10374156;28;20061;-58
2022/03/13 11:33:00;;;;;;;20.63;5.82;;;17.40;59.50;;;;;;10372319;28;20429;-57
2022/03/13 11:38:00;;;;;;;13.25;5.05;;;17.50;59.30;;;;;;10383795;28;20490;-58
2022/03/13 11:43:15;;;;;;;11.32;4.50;;;17.60;59.50;;;;;;10376606;28;20034;-56
2022/03/13 11:48:19;;;;;;;15.18;4.88;;;17.70;59.70;;;;;;10413683;28;20041;-58
2022/03/13 11:53:22;;;;;;;16.58;5.18;;;17.80;59.90;;;;;;10402778;28;20033;-59
2022/03/13 11:58:54;;;;;;;13.55;5.05;;;17.80;59.90;;;;;;10388242;28;20055;-59
2022/03/13 12:04:01;;;;;;;13.90;5.20;;;17.80;60.00;;;;;;10363571;28;20069;-60
2022/03/13 12:09:07;;;;;;;13.95;5.47;;;17.80;60.10;;;;;;10370759;28;20030;-57
2022/03/13 12:14:15;;;;;;;22.20;5.47;;;17.80;60.20;;;;;;10384793;28;20041;-56
2022/03/13 12:19:17;;;;;;;12.97;4.97;;;17.70;60.20;;;;;;10389816;28;20037;-59
2022/03/13 12:24:20;;;;;;;14.80;5.47;;;17.80;59.90;;;;;;10413880;28;20292;-59
2022/03/13 12:29:22;;;;;;;14.48;5.13;;;17.80;59.90;;;;;;10363117;28;20052;-56
2022/03/13 12:34:25;;;;;;;14.25;4.07;;;17.80;59.60;;;;;;10386553;28;20026;-65
2022/03/13 12:39:26;;;;;;;12.85;5.47;;;17.90;59.20;;;;;;10350048;28;20034;-65
2022/03/13 12:44:30;;;;;;;10.23;3.80;;;17.90;59.10;;;;;;10369980;28;20436;-64
2022/03/13 12:49:36;;;;;;;11.15;4.90;;;18.00;58.80;;;;;;10355821;28;20052;-62
2022/03/13 12:54:38;;;;;;;6.65;3.42;;;18.00;58.90;;;;;;10369507;28;20026;-62
2022/03/13 12:59:42;;;;;;;13.55;4.90;;;18.00;58.80;;;;;;10357479;28;20037;-61
2022/03/13 13:04:58;;;;;;;11.38;3.78;;;18.00;59.40;;;;;;10373260;28;20030;-64
2022/03/13 13:10:01;;;;;;;10.05;3.53;;;18.00;58.40;;;;;;10356084;28;20033;-62
2022/03/13 13:15:09;;;;;;;6.82;4.22;;;18.00;58.30;;;;;;10373093;28;20029;-62
2022/03/13 13:20:25;;;;;;;9.05;4.40;;;18.00;58.30;;;;;;10372796;28;20462;-62
2022/03/13 13:25:27;;;;;;;8.48;4.45;;;18.00;58.20;;;;;;10359062;28;20421;-60
2022/03/13 13:30:37;;;;;;;9.50;4.50;;;18.10;58.10;;;;;;10391647;28;20024;-61
2022/03/13 13:35:53;;;;;;;19.50;5.32;;;18.10;58.30;;;;;;10375044;28;20033;-61
2022/03/13 13:40:56;;;;;;;10.82;3.88;;;18.10;57.90;;;;;;10390479;28;20037;-60
2022/03/13 13:46:17;;;;;;;11.40;4.95;;;18.10;58.30;;;;;;10381868;28;20083;-62
2022/03/13 13:51:37;;;;;;;12.73;3.67;;;18.20;59.00;;;;;;10379551;28;20026;-62
2022/03/13 13:56:52;;;;;;;18.90;5.10;;;18.10;58.50;;;;;;10410794;28;20029;-62
2022/03/13 14:02:13;;;;;;;12.80;5.00;;;18.10;59.00;;;;;;10375469;28;20033;-62
2022/03/13 14:07:14;;;;;;;18.33;5.75;;;18.10;59.30;;;;;;10412546;28;20740;-62
2022/03/13 14:12:15;;;;;;;13.60;4.63;;;18.20;59.40;;;;;;10396158;28;20040;-62
2022/03/13 14:17:16;;;;;;;11.10;4.35;;;18.10;59.70;;;;;;10361941;28;20109;-62
2022/03/13 14:22:16;;;;;;;13.80;3.80;;;18.10;60.20;;;;;;10412057;28;20037;-62
2022/03/13 14:27:17;;;;;;;15.77;4.07;;;18.10;59.90;;;;;;10411000;28;20073;-62
2022/03/13 14:32:18;;;;;;;18.67;5.45;;;18.00;60.20;;;;;;10412144;28;20407;-61
2022/03/13 14:37:18;;;;;;;12.00;4.70;;;18.00;60.40;;;;;;10411651;28;20079;-62
2022/03/13 14:42:19;;;;;;;24.80;5.47;;;18.00;60.60;;;;;;10411190;28;20029;-62
2022/03/13 14:47:20;;;;;;;22.65;5.15;;;18.00;60.40;;;;;;10400311;28;20605;-61
2022/03/13 14:52:20;;;;;;;19.73;5.85;;;18.10;60.70;;;;;;10392813;28;20022;-62
2022/03/13 14:57:21;;;;;;;26.25;6.65;;;18.00;60.30;;;;;;10412296;28;20065;-61
2022/03/13 15:02:21;;;;;;;16.77;6.35;;;18.00;60.10;;;;;;10384075;28;20069;-61
2022/03/13 15:07:22;;;;;;;20.58;6.18;;;17.90;60.10;;;;;;10377952;28;20066;-61
2022/03/13 15:12:24;;;;;;;18.60;6.50;;;17.90;60.20;;;;;;10377629;28;20141;-62
2022/03/13 15:17:27;;;;;;;15.38;4.68;;;17.90;60.20;;;;;;10384316;28;20438;-62
2022/03/13 15:22:28;;;;;;;16.90;4.75;;;17.80;60.00;;;;;;10404729;28;20025;-62
2022/03/13 15:27:29;;;;;;;20.25;5.03;;;17.80;59.90;;;;;;10417714;28;20081;-62
2022/03/13 15:32:29;;;;;;;14.88;4.75;;;17.70;59.90;;;;;;10417750;28;20047;-62
2022/03/13 15:37:30;;;;;;;13.25;4.05;;;17.70;60.00;;;;;;10381542;28;20044;-62
2022/03/13 15:42:31;;;;;;;12.95;4.38;;;17.70;60.00;;;;;;10409228;28;20025;-62
2022/03/13 15:47:32;;;;;;;9.77;5.07;;;17.60;59.90;;;;;;10352284;28;20365;-61
2022/03/13 15:52:32;;;;;;;8.75;4.40;;;17.60;59.80;;;;;;10373382;28;20050;-61
2022/03/13 15:57:33;;;;;;;10.70;5.03;;;17.70;59.80;;;;;;10389264;28;20037;-62
2022/03/13 16:02:34;;;;;;;14.23;4.90;;;17.60;59.80;;;;;;10369269;28;20062;-62
2022/03/13 16:07:34;;;;;;;12.57;4.53;;;17.60;59.70;;;;;;10409071;28;20070;-62
2022/03/13 16:12:35;;;;;;;10.45;5.40;;;17.50;59.70;;;;;;10370533;28;20380;-62
2022/03/13 16:17:37;;;;;;;8.65;4.35;;;17.50;59.60;;;;;;10393082;28;20496;-62
2022/03/13 16:22:38;;;;;;;7.38;4.03;;;17.60;59.50;;;;;;10374409;28;20029;-60
2022/03/13 16:27:39;;;;;;;10.43;4.63;;;17.50;59.40;;;;;;10389881;28;20073;-62
2022/03/13 16:32:40;;;;;;;12.63;4.15;;;17.50;59.30;;;;;;10365824;28;20037;-61
2022/03/13 16:37:40;;;;;;;10.55;4.65;;;17.50;59.30;;;;;;10368078;28;20055;-61
2022/03/13 16:42:41;;;;;;;11.93;5.20;;;17.50;59.20;;;;;;10399576;28;20069;-61
2022/03/13 16:47:42;;;;;;;14.07;5.60;;;17.50;59.30;;;;;;10395122;28;20030;-61
2022/03/13 16:52:43;;;;;;;9.82;4.55;;;17.50;59.50;;;;;;10375025;28;20017;-61
2022/03/13 16:57:46;;;;;;;19.73;6.85;;;17.40;60.10;;;;;;10392128;28;20026;-62
2022/03/13 17:02:49;;;;;;;21.02;5.80;;;17.40;60.30;;;;;;10384760;28;20032;-62
2022/03/13 17:07:49;;;;;;;18.25;6.47;;;17.50;60.10;;;;;;10387488;28;20060;-62
2022/03/13 17:12:51;;;;;;;54.45;37.67;;;17.50;59.70;;;;;;10392594;28;20109;-60
2022/03/13 17:17:57;;;;;;;52.15;39.10;;;17.50;60.00;;;;;;10412821;28;20053;-60
2022/03/13 17:22:58;;;;;;;45.92;35.40;;;17.60;63.80;;;;;;10393429;28;20050;-60
2022/03/13 17:27:59;;;;;;;48.20;34.17;;;17.70;63.60;;;;;;10372634;28;20085;-60
2022/03/13 17:33:02;;;;;;;50.63;34.53;;;17.60;64.20;;;;;;10405878;28;20096;-60
2022/03/13 17:38:03;;;;;;;54.67;33.42;;;17.60;63.60;;;;;;10375468;28;20040;-60
2022/03/13 17:43:04;;;;;;;48.50;30.08;;;17.60;63.80;;;;;;10385645;28;20036;-61
2022/03/13 17:48:05;;;;;;;54.70;29.58;;;17.50;61.90;;;;;;10382334;28;20034;-61
2022/03/13 17:53:08;;;;;;;54.45;29.23;;;17.50;62.80;;;;;;10374236;28;20033;-61
2022/03/13 17:58:08;;;;;;;41.65;28.40;;;17.50;63.00;;;;;;10372132;28;20418;-61
2022/03/13 18:03:09;;;;;;;45.83;29.42;;;17.50;63.30;;;;;;10380973;28;20108;-61
2022/03/13 18:08:10;;;;;;;43.78;26.73;;;17.50;63.30;;;;;;10362011;28;20041;-62
2022/03/13 18:13:10;;;;;;;39.88;27.73;;;17.50;63.00;;;;;;10380271;28;20028;-62
2022/03/13 18:18:11;;;;;;;36.53;25.48;;;17.40;62.70;;;;;;10413239;28;20061;-62
2022/03/13 18:23:12;;;;;;;43.15;25.00;;;17.40;62.50;;;;;;10397332;28;20093;-61
2022/03/13 18:28:14;;;;;;;37.97;21.90;;;17.30;62.30;;;;;;10377074;28;20502;-62
2022/03/13 18:33:15;;;;;;;29.60;23.25;;;17.30;62.30;;;;;;10397063;28;20360;-61
2022/03/13 18:38:17;;;;;;;33.97;23.15;;;17.30;62.10;;;;;;10388232;28;20021;-62
2022/03/13 18:43:18;;;;;;;31.80;22.63;;;17.30;62.10;;;;;;10395856;28;20029;-62
2022/03/13 18:48:19;;;;;;;38.65;23.58;;;17.30;62.20;;;;;;10398842;28;20030;-62
2022/03/13 18:53:20;;;;;;;31.10;21.05;;;17.40;62.10;;;;;;10395695;28;20461;-62
2022/03/13 18:58:21;;;;;;;31.45;19.95;;;17.40;62.30;;;;;;10389348;28;20130;-61
2022/03/13 19:03:22;;;;;;;29.50;18.42;;;17.40;62.30;;;;;;10397330;28;20029;-62
2022/03/13 19:08:22;;;;;;;26.52;20.13;;;17.40;62.30;;;;;;10382996;28;20033;-62
2022/03/13 19:13:23;;;;;;;26.90;17.90;;;17.40;62.30;;;;;;10394859;28;20429;-62
2022/03/13 19:18:24;;;;;;;28.95;19.05;;;17.40;62.40;;;;;;10377580;28;20079;-62
2022/03/13 19:23:25;;;;;;;29.50;19.40;;;17.40;62.40;;;;;;10393835;28;20029;-62
2022/03/13 19:28:25;;;;;;;22.13;17.23;;;17.40;62.30;;;;;;10395623;28;20113;-63
2022/03/13 19:33:26;;;;;;;25.48;16.95;;;17.40;62.20;;;;;;10388053;28;20535;-61
2022/03/13 19:38:27;;;;;;;22.75;16.40;;;17.30;62.00;;;;;;10385091;28;20072;-61
2022/03/13 19:43:28;;;;;;;21.35;16.65;;;17.40;62.10;;;;;;10396287;28;20030;-61
2022/03/13 19:48:29;;;;;;;24.75;16.50;;;17.40;62.10;;;;;;10373979;28;20026;-61
2022/03/13 19:53:30;;;;;;;24.58;14.20;;;17.30;62.00;;;;;;10375968;28;20033;-62
2022/03/13 19:58:31;;;;;;;21.77;14.95;;;17.40;62.00;;;;;;10372447;28;20074;-61
2022/03/13 20:03:31;;;;;;;19.17;14.48;;;17.40;62.10;;;;;;10375233;28;20037;-61
2022/03/13 20:08:32;;;;;;;22.38;14.07;;;17.30;61.90;;;;;;10373854;28;20458;-62
2022/03/13 20:13:33;;;;;;;18.25;15.57;;;17.40;62.20;;;;;;10379666;28;20105;-61
2022/03/13 20:18:34;;;;;;;19.90;12.82;;;17.40;62.20;;;;;;10371161;28;20037;-62
2022/03/13 20:23:35;;;;;;;19.88;13.13;;;17.40;62.00;;;;;;10356374;28;20050;-61
2022/03/13 20:28:36;;;;;;;19.55;12.68;;;17.40;62.00;;;;;;10369247;28;20088;-61
2022/03/13 20:33:38;;;;;;;21.92;13.48;;;17.40;62.00;;;;;;10373917;28;20474;-62
2022/03/13 20:38:39;;;;;;;15.68;12.63;;;17.40;62.00;;;;;;10372986;28;20030;-62
2022/03/13 20:43:40;;;;;;;16.42;11.25;;;17.30;61.70;;;;;;10342696;28;20481;-61
2022/03/13 20:48:40;;;;;;;15.70;10.98;;;17.30;61.70;;;;;;10389501;28;20447;-62
2022/03/13 20:53:41;;;;;;;16.42;11.75;;;17.30;61.60;;;;;;10380942;28;20045;-62
2022/03/13 20:58:42;;;;;;;13.65;10.40;;;17.30;61.50;;;;;;10367408;28;20038;-62
2022/03/13 21:03:43;;;;;;;15.48;10.52;;;17.30;61.50;;;;;;10383643;28;20087;-62
2022/03/13 21:08:43;;;;;;;19.25;11.05;;;17.20;61.40;;;;;;10383733;28;20072;-62
2022/03/13 21:13:45;;;;;;;12.57;9.45;;;17.20;61.30;;;;;;10368945;28;20076;-62
2022/03/13 21:18:46;;;;;;;10.73;8.80;;;17.20;61.30;;;;;;10376043;28;20033;-62
2022/03/13 21:23:47;;;;;;;11.98;8.88;;;17.30;61.30;;;;;;10413544;28;20072;-62
2022/03/13 21:28:48;;;;;;;10.90;8.25;;;17.30;61.30;;;;;;10364808;28;20036;-62
2022/03/13 21:33:48;;;;;;;11.85;8.27;;;17.20;61.30;;;;;;10381357;28;20062;-61
2022/03/13 21:38:49;;;;;;;11.70;9.05;;;17.20;61.30;;;;;;10372195;28;20370;-62
2022/03/13 21:43:50;;;;;;;10.63;8.40;;;17.20;61.20;;;;;;10413182;28;20061;-62
2022/03/13 21:48:51;;;;;;;11.25;8.15;;;17.20;61.10;;;;;;10392672;28;20474;-62
2022/03/13 21:53:52;;;;;;;12.85;8.07;;;17.20;61.10;;;;;;10369352;28;20034;-62
2022/03/13 21:58:53;;;;;;;10.25;8.15;;;17.20;61.00;;;;;;10416271;28;20048;-62
2022/03/13 22:03:54;;;;;;;8.05;6.30;;;17.20;61.00;;;;;;10392593;28;20687;-62
2022/03/13 22:08:55;;;;;;;8.27;6.65;;;17.20;61.00;;;;;;10382271;28;20041;-62
2022/03/13 22:13:55;;;;;;;8.57;7.07;;;17.20;61.00;;;;;;10380825;28;20053;-62
2022/03/13 22:18:57;;;;;;;8.00;6.53;;;17.20;60.90;;;;;;10379586;28;20040;-62
2022/03/13 22:23:58;;;;;;;11.00;7.60;;;17.20;60.80;;;;;;10374847;28;20154;-62
2022/03/13 22:28:59;;;;;;;8.27;7.30;;;17.20;60.80;;;;;;10377654;28;20038;-62
2022/03/13 22:34:00;;;;;;;9.82;7.35;;;17.20;60.70;;;;;;10361542;28;20034;-62
2022/03/13 22:39:00;;;;;;;9.55;8.20;;;17.20;60.70;;;;;;10413500;28;20393;-62
2022/03/13 22:44:01;;;;;;;10.10;7.20;;;17.20;60.70;;;;;;10418994;28;20033;-62
2022/03/13 22:49:04;;;;;;;9.27;6.90;;;17.10;60.60;;;;;;10374951;28;20120;-61
2022/03/13 22:54:06;;;;;;;9.85;7.57;;;17.10;60.60;;;;;;10379908;28;20037;-62
2022/03/13 22:59:07;;;;;;;8.18;6.88;;;17.10;60.50;;;;;;10378305;28;20038;-62
2022/03/13 23:04:08;;;;;;;11.05;6.43;;;17.20;60.80;;;;;;10377938;28;20112;-62
2022/03/13 23:09:08;;;;;;;7.00;5.22;;;17.10;60.60;;;;;;10391923;28;20235;-62
2022/03/13 23:14:09;;;;;;;8.23;5.45;;;17.10;61.20;;;;;;10387577;28;20029;-62
2022/03/13 23:19:12;;;;;;;7.80;5.50;;;17.20;60.70;;;;;;10371026;28;20540;-62
2022/03/13 23:24:15;;;;;;;8.40;5.72;;;17.20;60.70;;;;;;10373871;28;20095;-62
2022/03/13 23:29:16;;;;;;;8.30;6.43;;;17.10;60.70;;;;;;10417895;28;20112;-62
2022/03/13 23:34:19;;;;;;;6.70;5.03;;;17.10;60.60;;;;;;10395588;28;20465;-62
2022/03/13 23:39:20;;;;;;;7.28;5.43;;;17.10;60.70;;;;;;10383190;28;20026;-62
2022/03/13 23:44:21;;;;;;;9.27;5.72;;;17.10;60.50;;;;;;10367898;28;20065;-62
2022/03/13 23:49:22;;;;;;;7.63;6.00;;;17.10;60.20;;;;;;10374665;28;20025;-62
2022/03/13 23:54:23;;;;;;;6.35;5.32;;;17.20;60.10;;;;;;10394381;28;20030;-62
2022/03/13 23:59:24;;;;;;;6.50;4.68;;;17.10;60.10;;;;;;10371678;28;20550;-61
